Quanto e quando os FIIs pagam?

Confira abaixo o Dividend Yield (dividendo por cota em relação ao valor da cota) no último mês e nos últimos 12 meses, o último valor de proventos pagos por cota e a data prevista de pagamento.

Nomes estão ordenados por data de pagamento.

Código Yield no mês Yield acumulado em 12 meses Dividendo por cota
(R$)
Data de pagamento
HTMX11 1,84% 21,76% 3,25 08/01/2024
HSML11 0,82% 11,65% 0,76 08/01/2024
LVBI11 0,80% 9,78% 0,90 08/01/2024
PVBI11 0,69% 8,77% 0,70 08/01/2024
ABCP11 0,95% 9,21% 0,65 08/01/2024
NSLU11 0,81% 11,36% 1,55 08/01/2024
RZTR11 1,08% 12,49% 1,10 08/01/2024
PORD11 1,16% 13,77% 1,01 08/01/2024
SPTW11 1,54% 13,37% 0,65 08/01/2024
BPFF11 0,90% 11,53% 0,62 08/01/2024
GALG11 0,91% 10,82% 0,08 08/01/2024
VGHF11 1,08% 14,29% 0,10 08/01/2024
ARRI11 1,10% 13,28% 0,10 08/01/2024
HSAF11 0,89% 13,51% 0,75 08/01/2024
GGRC11 0,80% 10,29% 0,90 09/01/2024
PATL11 0,95% 9,97% 0,60 09/01/2024
QAGR11 0,89% 12,27% 0,43 09/01/2024
PATC11 4,36% 11,11% 1,70 09/01/2024
RBVO11 0,42% 2,18% 0,04 09/01/2024
CACR11 1,47% 16,80% 1,48 09/01/2024
AIEC11 2,41% 13,74% 1,33 09/01/2024
FIIB11 0,72% 8,92% 3,65 10/01/2024
CXRI11 0,76% 10,92% 0,59 11/01/2024
HABT11 1,15% 14,99% 0,98 12/01/2024
KNIP11 0,82% 10,59% 0,75 12/01/2024
KNCR11 1,00% 13,59% 1,01 12/01/2024
KNHY11 1,03% 13,29% 1,05 12/01/2024
KNSC11 0,80% 12,02% 0,07 12/01/2024
VISC11 0,84% 10,15% 1,00 12/01/2024
VILG11 0,67% 8,10% 0,64 12/01/2024
VINO11 0,76% 7,81% 0,06 12/01/2024
VCJR11 1,01% 12,14% 0,90 12/01/2024
KCRE11 0,86% 13,64% 0,81 12/01/2024
VIUR11 0,92% 11,69% 0,07 12/01/2024
VCRI11 1,06% 12,97% 0,09 12/01/2024
RECR11 0,92% 12,18% 0,78 15/01/2024
HAAA11 0,78% 5,68% 0,37 15/01/2024
RNGO11 0,91% 10,17% 0,40 15/01/2024
FIIP11B 0,84% 11,77% 1,44 15/01/2024
FIGS11 0,76% 11,20% 0,45 15/01/2024
RBRD11 0,86% 11,32% 0,34 15/01/2024
KNRI11 0,63% 8,83% 1,00 15/01/2024
HGLG11 0,69% 8,37% 1,10 15/01/2024
XPLG11 0,73% 9,46% 0,78 15/01/2024
BRCR11 0,69% 8,83% 0,41 15/01/2024
TVRI11 0,97% 12,84% 0,91 15/01/2024
HGBS11 0,90% 10,98% 2,00 15/01/2024
JSRE11 0,65% 7,88% 0,46 15/01/2024
HFOF11 0,86% 11,06% 0,63 15/01/2024
MXRF11 1,05% 13,66% 0,11 15/01/2024
BCFF11 0,75% 10,11% 0,07 15/01/2024
HGRE11 0,93% 8,79% 1,20 15/01/2024
HGRU11 1,73% 10,44% 2,30 15/01/2024
BRCO11 0,80% 10,56% 0,99 15/01/2024
GTWR11 0,97% 12,93% 0,79 15/01/2024
HGCR11 0,98% 13,23% 1,00 15/01/2024
TGAR11 1,10% 13,74% 1,32 15/01/2024
RBRP11 0,54% 6,63% 0,28 15/01/2024
MALL11 0,69% 9,51% 0,80 15/01/2024
XPCI11 0,91% 12,53% 0,76 15/01/2024
TRBL11 0,74% 10,37% 0,72 15/01/2024
TRXF11 1,58% 10,91% 1,70 15/01/2024
XPPR11 0,55% 3,93% 0,10 15/01/2024
HGPO11 0,52% 7,36% 1,50 15/01/2024
MFII11 1,19% 14,08% 1,08 15/01/2024
TEPP11 1,01% 9,90% 0,90 15/01/2024
XPSF11 0,95% 12,47% 0,08 15/01/2024
BTCI11 1,01% 13,80% 0,10 15/01/2024
OUJP11 0,93% 14,57% 0,90 15/01/2024
FPAB11 0,47% 13,85% 0,90 15/01/2024
BBRC11 0,97% 13,65% 1,13 15/01/2024
FLMA11 0,70% 8,56% 0,97 15/01/2024
FAED11 0,98% 12,52% 1,48 15/01/2024
CEOC11 0,96% 12,71% 0,43 15/01/2024
XPCM11 0,20% 6,43% 0,02 15/01/2024
MAXR11 1,03% 11,63% 0,77 15/01/2024
CBOP11 0,38% 2,82% 0,12 15/01/2024
FLRP11 0,65% 10,82% 13,50 15/01/2024
WPLZ11 0,66% 6,33% 0,41 15/01/2024
RBED11 1,02% 13,73% 1,45 15/01/2024
SEQR11 1,22% 13,49% 0,72 15/01/2024
URPR11 1,33% 14,86% 1,11 15/01/2024
CXCE11B 1,00% 11,83% 0,43 15/01/2024
RBVA11 0,90% 12,75% 1,00 15/01/2024
VRTA11 0,86% 11,21% 0,75 15/01/2024
RCRB11 0,53% 7,61% 0,80 15/01/2024
SHPH11 0,40% 7,11% 3,35 15/01/2024
BCRI11 1,15% 9,57% 0,78 15/01/2024
BBFI11B 0,66% 8,03% 7,43 15/01/2024
CXTL11 0,90% 6,15% 2,10 15/01/2024
HSLG11 0,84% 9,95% 0,74 15/01/2024
KFOF11 1,08% 12,46% 1,03 15/01/2024
SARE11 0,95% 9,90% 0,45 15/01/2024
KISU11 0,98% 11,08% 0,08 15/01/2024
JSAF11 0,99% 14,12% 1,00 15/01/2024
LGCP11 0,85% 9,43% 0,72 15/01/2024
HGFF11 0,84% 11,47% 0,70 15/01/2024
WHGR11 1,06% 14,14% 0,10 15/01/2024
PLCR11 0,93% 13,63% 0,80 15/01/2024
CYCR11 1,19% 13,96% 0,11 15/01/2024
SADI11 1,20% 13,19% 1,02 15/01/2024
RBFF11 0,88% 11,60% 0,52 15/01/2024
RECT11 0,92% 10,07% 0,40 17/01/2024
CVBI11 0,89% 12,63% 0,80 17/01/2024
HCTR11 0,92% 6,34% 0,34 17/01/2024
RBRR11 0,76% 11,25% 0,65 17/01/2024
RBRF11 0,73% 10,38% 0,55 17/01/2024
IRDM11 1,01% 10,96% 0,77 17/01/2024
MCCI11 0,97% 12,46% 0,90 18/01/2024
CPTS11 0,76% 10,71% 0,06 18/01/2024
VGIR11 1,12% 14,84% 0,11 18/01/2024
HCRI11 0,97% 14,63% 3,00 18/01/2024
TRNT11 0,17% 3,70% 0,22 18/01/2024
PQDP11 0,96% 9,82% 18,47 19/01/2024
BARI11 0,86% 10,75% 0,69 22/01/2024
RZAK11 1,37% 14,46% 1,20 22/01/2024
AFHI11 1,04% 13,28% 1,00 22/01/2024
BROF11 0,93% ND 0,56 24/01/2024
XPML11 0,80% 10,55% 0,90 26/01/2024
BTLG11 0,76% 9,21% 0,76 26/01/2024
XPIN11 0,76% 10,67% 0,63 26/01/2024
ALZR11 0,72% 8,69% 0,83 26/01/2024
FCFL11 0,78% 8,62% 0,86 26/01/2024
BCIA11 0,84% 11,78% 0,85 29/01/2024
EDGA11 0,32% 6,02% 0,07 31/01/2024
Fonte: Economatica

Elaborado por:

Júlia Aquino, CNPI 3607

1) Este relatório de análise foi elaborado pela Rico Investimentos, que é uma marca da XP Investimentos CCTVM S.A. (“Rico”) de acordo com todas as exigências previstas na Resolução CVM nº 20/2021, tem como objetivo fornecer informações que possam auxiliar o investidor a tomar sua própria decisão de investimento, não constituindo qualquer tipo de oferta ou solicitação de compra e/ou venda de qualquer produto. As informações contidas neste relatório são consideradas válidas na data de sua divulgação e foram obtidas de fontes públicas. A Rico não se responsabiliza por qualquer decisão tomada pelo cliente com base no presente relatório.

2) Este relatório foi elaborado considerando a classificação de risco dos produtos de modo a gerar resultados de alocação para cada perfil de investidor.

3) O(s) signatário(s) deste relatório declara(m) que as recomendações refletem única e exclusivamente suas análises e opiniões pessoais, que foram produzidas de forma independente, inclusive em relação à Rico e que estão sujeitas a modificações sem aviso prévio em decorrência de alterações nas condições de mercado, e que sua(s) remuneração(es) é(são) indiretamente influenciada por receitas provenientes dos negócios e operações financeiras realizadas pela Rico.

4) O analista responsável pelo conteúdo deste relatório e pelo cumprimento da Resolução CVM nº 20/2021 está indicado acima, sendo que, caso constem a indicação de mais um analista no relatório, o responsável será o primeiro analista credenciado a ser mencionado no relatório.

5) Os analistas da Rico estão obrigados ao cumprimento de todas as regras previstas no Código de Conduta da APIMEC para o Analista de Valores Mobiliários e na Política de Conduta dos Analistas de Valores Mobiliários do Grupo XP.

6) Os produtos apresentados neste relatório podem não ser adequados para todos os tipos de cliente. Antes de qualquer decisão, os clientes deverão realizar o processo de suitability e confirmar se os produtos apresentados são indicados para o seu perfil de investidor. Este material não sugere qualquer alteração de carteira, mas somente orientação sobre produtos adequados a determinado perfil de investidor.

7) A rentabilidade de produtos financeiros pode apresentar variações e seu preço ou valor pode aumentar ou diminuir num curto espaço de tempo. Os desempenhos anteriores não são necessariamente indicativos de resultados futuros. A rentabilidade divulgada não é líquida de impostos. As informações presentes neste material são baseadas em simulações e os resultados reais poderão ser significativamente diferentes.

8) Este relatório é destinado à circulação exclusiva para a rede de relacionamento da Rico. Fica proibida sua reprodução ou redistribuição para qualquer pessoa, no todo ou em parte, qualquer que seja o propósito, sem o prévio consentimento expresso da Rico.

9) SAC. 0800 774 0402. A Ouvidoria da Rico tem a missão de servir de canal de contato sempre que os clientes que não se sentirem satisfeitos com as soluções dadas pela empresa aos seus problemas. O contato pode ser realizado por meio do telefone: 0800-722-3730.

10) O custo da operação e a política de cobrança estão definidos nas tabelas de custos operacionais disponibilizadas no site da Rico: https://www.rico.com.vc/custos. 11) A Rico se exime de qualquer responsabilidade por quaisquer prejuízos, diretos ou indiretos, que venham a decorrer da utilização deste relatório ou seu conteúdo. 

12) A Avaliação Técnica e a Avaliação de Fundamentos seguem diferentes metodologias de análise. A Análise Técnica é executada seguindo conceitos como tendência, suporte, resistência, candles, volumes, médias móveis entre outros. Já a Análise Fundamentalista utiliza como informação os resultados divulgados pelas companhias emissoras e suas projeções. Desta forma, as opiniões dos Analistas Fundamentalistas, que buscam os melhores retornos dadas as condições de mercado, o cenário macroeconômico e os eventos específicos da empresa e do setor, podem divergir das opiniões dos Analistas Técnicos, que visam identificar os movimentos mais prováveis dos preços dos ativos, com utilização de “stops” para limitar as possíveis perdas. 

13) Antes de qualquer decisão, os clientes deverão realizar o processo de suitability e confirmar se os produtos apresentados são indicados para o seu perfil de investidor.